sensor_id;sensor_type;location;lat;lon;timestamp;temperature;humidity
77523;SHT31;66637;-29.628;-49.938;2023-07-30T00:02:19;13.26;80.29
77523;SHT31;66637;-29.628;-49.938;2023-07-30T00:04:49;13.27;80.74
77523;SHT31;66637;-29.628;-49.938;2023-07-30T00:07:20;13.28;80.88
77523;SHT31;66637;-29.628;-49.938;2023-07-30T00:09:50;13.27;80.93
77523;SHT31;66637;-29.628;-49.938;2023-07-30T00:12:21;13.23;80.81
77523;SHT31;66637;-29.628;-49.938;2023-07-30T00:14:52;13.16;80.83
77523;SHT31;66637;-29.628;-49.938;2023-07-30T00:17:22;13.16;81.11
77523;SHT31;66637;-29.628;-49.938;2023-07-30T00:19:53;13.20;80.96
77523;SHT31;66637;-29.628;-49.938;2023-07-30T00:22:23;13.17;80.86
77523;SHT31;66637;-29.628;-49.938;2023-07-30T00:24:53;13.14;80.70
77523;SHT31;66637;-29.628;-49.938;2023-07-30T00:27:24;13.09;80.94
77523;SHT31;66637;-29.628;-49.938;2023-07-30T00:29:54;13.06;80.86
77523;SHT31;66637;-29.628;-49.938;2023-07-30T00:32:24;13.03;81.13
77523;SHT31;66637;-29.628;-49.938;2023-07-30T00:34:55;12.99;81.31
77523;SHT31;66637;-29.628;-49.938;2023-07-30T00:37:26;12.99;81.39
77523;SHT31;66637;-29.628;-49.938;2023-07-30T00:39:56;12.96;81.30
77523;SHT31;66637;-29.628;-49.938;2023-07-30T00:42:27;12.93;81.19
77523;SHT31;66637;-29.628;-49.938;2023-07-30T00:44:57;12.93;81.36
77523;SHT31;66637;-29.628;-49.938;2023-07-30T00:47:28;12.90;81.42
77523;SHT31;66637;-29.628;-49.938;2023-07-30T00:49:58;12.89;81.59
77523;SHT31;66637;-29.628;-49.938;2023-07-30T00:52:30;12.95;81.59
77523;SHT31;66637;-29.628;-49.938;2023-07-30T00:55:02;12.90;81.78
77523;SHT31;66637;-29.628;-49.938;2023-07-30T00:57:35;12.80;81.58
77523;SHT31;66637;-29.628;-49.938;2023-07-30T01:00:09;12.70;81.61
77523;SHT31;66637;-29.628;-49.938;2023-07-30T01:02:40;12.73;81.53
77523;SHT31;66637;-29.628;-49.938;2023-07-30T01:05:11;12.66;81.31
77523;SHT31;66637;-29.628;-49.938;2023-07-30T01:07:41;12.66;81.52
77523;SHT31;66637;-29.628;-49.938;2023-07-30T01:10:12;12.62;81.51
77523;SHT31;66637;-29.628;-49.938;2023-07-30T01:12:46;12.60;81.68
77523;SHT31;66637;-29.628;-49.938;2023-07-30T01:15:16;12.59;81.82
77523;SHT31;66637;-29.628;-49.938;2023-07-30T01:17:47;12.53;82.00
77523;SHT31;66637;-29.628;-49.938;2023-07-30T01:20:17;12.53;82.15
77523;SHT31;66637;-29.628;-49.938;2023-07-30T01:22:47;12.53;82.33
77523;SHT31;66637;-29.628;-49.938;2023-07-30T01:25:22;12.45;82.09
77523;SHT31;66637;-29.628;-49.938;2023-07-30T01:27:56;12.44;82.46
77523;SHT31;66637;-29.628;-49.938;2023-07-30T01:30:32;12.45;82.58
77523;SHT31;66637;-29.628;-49.938;2023-07-30T01:33:04;12.42;82.23
77523;SHT31;66637;-29.628;-49.938;2023-07-30T01:35:37;12.35;82.28
77523;SHT31;66637;-29.628;-49.938;2023-07-30T01:38:08;12.31;82.71
77523;SHT31;66637;-29.628;-49.938;2023-07-30T01:40:39;12.35;82.75
77523;SHT31;66637;-29.628;-49.938;2023-07-30T01:43:11;12.32;82.76
77523;SHT31;66637;-29.628;-49.938;2023-07-30T01:45:42;12.35;82.75
77523;SHT31;66637;-29.628;-49.938;2023-07-30T01:48:13;12.32;82.52
77523;SHT31;66637;-29.628;-49.938;2023-07-30T01:50:44;12.25;82.44
77523;SHT31;66637;-29.628;-49.938;2023-07-30T01:53:17;12.20;82.18
77523;SHT31;66637;-29.628;-49.938;2023-07-30T01:55:47;12.24;82.25
77523;SHT31;66637;-29.628;-49.938;2023-07-30T01:58:17;12.21;82.36
77523;SHT31;66637;-29.628;-49.938;2023-07-30T02:00:47;12.15;82.22
77523;SHT31;66637;-29.628;-49.938;2023-07-30T02:03:18;12.15;82.20
77523;SHT31;66637;-29.628;-49.938;2023-07-30T02:05:49;12.15;82.30
77523;SHT31;66637;-29.628;-49.938;2023-07-30T02:08:20;12.21;82.29
77523;SHT31;66637;-29.628;-49.938;2023-07-30T02:11:00;12.24;82.45
77523;SHT31;66637;-29.628;-49.938;2023-07-30T02:13:30;12.22;82.15
77523;SHT31;66637;-29.628;-49.938;2023-07-30T02:16:02;12.25;82.18
77523;SHT31;66637;-29.628;-49.938;2023-07-30T02:18:33;12.24;82.12
77523;SHT31;66637;-29.628;-49.938;2023-07-30T02:21:07;12.22;82.06
77523;SHT31;66637;-29.628;-49.938;2023-07-30T02:23:38;12.24;81.97
77523;SHT31;66637;-29.628;-49.938;2023-07-30T02:26:08;12.21;82.01
77523;SHT31;66637;-29.628;-49.938;2023-07-30T02:28:41;12.21;82.00
77523;SHT31;66637;-29.628;-49.938;2023-07-30T02:31:13;12.20;81.91
77523;SHT31;66637;-29.628;-49.938;2023-07-30T02:33:43;12.18;81.88
77523;SHT31;66637;-29.628;-49.938;2023-07-30T02:36:15;12.17;81.87
77523;SHT31;66637;-29.628;-49.938;2023-07-30T02:38:46;12.14;81.80
77523;SHT31;66637;-29.628;-49.938;2023-07-30T02:41:26;12.15;81.79
77523;SHT31;66637;-29.628;-49.938;2023-07-30T02:44:10;12.18;81.70
77523;SHT31;66637;-29.628;-49.938;2023-07-30T04:41:02;12.55;78.77
77523;SHT31;66637;-29.628;-49.938;2023-07-30T04:43:51;12.53;78.90
77523;SHT31;66637;-29.628;-49.938;2023-07-30T04:46:30;12.46;79.02
77523;SHT31;66637;-29.628;-49.938;2023-07-30T04:49:13;12.48;79.08
77523;SHT31;66637;-29.628;-49.938;2023-07-30T04:51:54;12.42;79.16
77523;SHT31;66637;-29.628;-49.938;2023-07-30T04:54:41;12.44;79.10
77523;SHT31;66637;-29.628;-49.938;2023-07-30T04:58:07;12.36;79.28
77523;SHT31;66637;-29.628;-49.938;2023-07-30T10:37:52;12.04;79.65
77523;SHT31;66637;-29.628;-49.938;2023-07-30T10:40:39;12.06;79.63
77523;SHT31;66637;-29.628;-49.938;2023-07-30T10:43:28;15.17;73.50
77523;SHT31;66637;-29.628;-49.938;2023-07-30T10:46:00;14.22;73.98
77523;SHT31;66637;-29.628;-49.938;2023-07-30T10:48:37;15.14;72.72
77523;SHT31;66637;-29.628;-49.938;2023-07-30T10:51:19;15.05;72.15
77523;SHT31;66637;-29.628;-49.938;2023-07-30T10:54:06;17.66;66.27
77523;SHT31;66637;-29.628;-49.938;2023-07-30T10:57:12;15.31;71.47
77523;SHT31;66637;-29.628;-49.938;2023-07-30T10:59:50;18.85;63.30
77523;SHT31;66637;-29.628;-49.938;2023-07-30T11:02:36;20.11;60.34
77523;SHT31;66637;-29.628;-49.938;2023-07-30T11:05:20;16.74;66.88
77523;SHT31;66637;-29.628;-49.938;2023-07-30T11:07:57;15.99;67.89
77523;SHT31;66637;-29.628;-49.938;2023-07-30T11:14:00;15.30;70.46
77523;SHT31;66637;-29.628;-49.938;2023-07-30T11:16:34;15.76;70.08
77523;SHT31;66637;-29.628;-49.938;2023-07-30T11:19:08;16.98;68.01
77523;SHT31;66637;-29.628;-49.938;2023-07-30T11:21:48;19.45;62.40
77523;SHT31;66637;-29.628;-49.938;2023-07-30T11:24:37;20.14;60.76
77523;SHT31;66637;-29.628;-49.938;2023-07-30T11:27:20;18.67;63.04
77523;SHT31;66637;-29.628;-49.938;2023-07-30T11:29:57;17.23;66.88
77523;SHT31;66637;-29.628;-49.938;2023-07-30T11:32:33;16.64;68.98
77523;SHT31;66637;-29.628;-49.938;2023-07-30T11:35:11;16.31;69.05
77523;SHT31;66637;-29.628;-49.938;2023-07-30T11:37:43;16.17;69.59
77523;SHT31;66637;-29.628;-49.938;2023-07-30T11:40:15;16.05;69.66
77523;SHT31;66637;-29.628;-49.938;2023-07-30T11:42:50;16.26;70.44
77523;SHT31;66637;-29.628;-49.938;2023-07-30T11:45:30;16.37;69.46
77523;SHT31;66637;-29.628;-49.938;2023-07-30T11:48:24;16.50;69.49
77523;SHT31;66637;-29.628;-49.938;2023-07-30T11:51:00;16.70;69.09
77523;SHT31;66637;-29.628;-49.938;2023-07-30T11:56:27;17.08;67.89
77523;SHT31;66637;-29.628;-49.938;2023-07-30T11:59:08;17.26;67.38
77523;SHT31;66637;-29.628;-49.938;2023-07-30T12:01:42;17.14;67.65
77523;SHT31;66637;-29.628;-49.938;2023-07-30T12:04:21;17.55;67.67
77523;SHT31;66637;-29.628;-49.938;2023-07-30T12:06:54;17.61;66.67
77523;SHT31;66637;-29.628;-49.938;2023-07-30T12:09:25;17.77;66.04
77523;SHT31;66637;-29.628;-49.938;2023-07-30T12:12:13;17.82;66.80
77523;SHT31;66637;-29.628;-49.938;2023-07-30T12:15:17;18.00;66.90
77523;SHT31;66637;-29.628;-49.938;2023-07-30T12:17:54;18.10;65.23
77523;SHT31;66637;-29.628;-49.938;2023-07-30T12:20:33;18.13;65.54
77523;SHT31;66637;-29.628;-49.938;2023-07-30T12:23:10;18.30;65.52
77523;SHT31;66637;-29.628;-49.938;2023-07-30T12:25:45;18.41;65.41
77523;SHT31;66637;-29.628;-49.938;2023-07-30T12:36:32;18.51;66.00
77523;SHT31;66637;-29.628;-49.938;2023-07-30T12:39:13;18.58;65.63
77523;SHT31;66637;-29.628;-49.938;2023-07-30T12:41:48;18.49;65.25
77523;SHT31;66637;-29.628;-49.938;2023-07-30T12:44:34;18.58;65.51
77523;SHT31;66637;-29.628;-49.938;2023-07-30T12:47:20;18.51;65.29
77523;SHT31;66637;-29.628;-49.938;2023-07-30T12:50:18;18.71;65.22
77523;SHT31;66637;-29.628;-49.938;2023-07-30T12:53:07;18.61;65.64
77523;SHT31;66637;-29.628;-49.938;2023-07-30T12:55:45;18.75;65.78
77523;SHT31;66637;-29.628;-49.938;2023-07-30T12:58:28;18.78;65.45
77523;SHT31;66637;-29.628;-49.938;2023-07-30T13:01:03;18.75;66.11
77523;SHT31;66637;-29.628;-49.938;2023-07-30T13:04:05;18.73;65.75
77523;SHT31;66637;-29.628;-49.938;2023-07-30T13:06:48;18.81;65.06
77523;SHT31;66637;-29.628;-49.938;2023-07-30T13:09:21;18.82;64.36
77523;SHT31;66637;-29.628;-49.938;2023-07-30T13:12:00;18.87;65.47
77523;SHT31;66637;-29.628;-49.938;2023-07-30T13:14:45;18.89;65.27
77523;SHT31;66637;-29.628;-49.938;2023-07-30T13:17:24;18.95;65.55
77523;SHT31;66637;-29.628;-49.938;2023-07-30T13:20:18;18.99;65.84
77523;SHT31;66637;-29.628;-49.938;2023-07-30T13:23:12;18.91;66.44
77523;SHT31;66637;-29.628;-49.938;2023-07-30T13:25:54;18.99;65.46
77523;SHT31;66637;-29.628;-49.938;2023-07-30T13:28:33;19.16;66.10
77523;SHT31;66637;-29.628;-49.938;2023-07-30T13:31:18;19.13;65.94
77523;SHT31;66637;-29.628;-49.938;2023-07-30T13:33:52;19.18;65.74
77523;SHT31;66637;-29.628;-49.938;2023-07-30T13:36:34;19.13;66.11
77523;SHT31;66637;-29.628;-49.938;2023-07-30T13:39:43;19.39;66.10
77523;SHT31;66637;-29.628;-49.938;2023-07-30T13:42:15;19.47;66.90
77523;SHT31;66637;-29.628;-49.938;2023-07-30T13:45:01;19.62;66.30
77523;SHT31;66637;-29.628;-49.938;2023-07-30T13:47:41;19.40;65.23
77523;SHT31;66637;-29.628;-49.938;2023-07-30T13:50:24;19.47;66.02
77523;SHT31;66637;-29.628;-49.938;2023-07-30T13:53:15;19.59;66.90
77523;SHT31;66637;-29.628;-49.938;2023-07-30T13:56:16;19.53;65.77
77523;SHT31;66637;-29.628;-49.938;2023-07-30T13:58:53;19.47;65.24
77523;SHT31;66637;-29.628;-49.938;2023-07-30T14:01:51;19.71;66.61
77523;SHT31;66637;-29.628;-49.938;2023-07-30T14:04:27;19.64;65.02
77523;SHT31;66637;-29.628;-49.938;2023-07-30T14:07:12;19.71;64.80
77523;SHT31;66637;-29.628;-49.938;2023-07-30T14:09:48;19.75;65.15
77523;SHT31;66637;-29.628;-49.938;2023-07-30T14:12:19;19.87;64.85
77523;SHT31;66637;-29.628;-49.938;2023-07-30T14:14:49;19.98;65.25
77523;SHT31;66637;-29.628;-49.938;2023-07-30T14:17:19;19.95;64.71
77523;SHT31;66637;-29.628;-49.938;2023-07-30T14:19:49;20.01;64.44
77523;SHT31;66637;-29.628;-49.938;2023-07-30T14:22:20;20.07;63.30
77523;SHT31;66637;-29.628;-49.938;2023-07-30T14:24:51;20.13;63.77
77523;SHT31;66637;-29.628;-49.938;2023-07-30T14:27:21;20.10;63.43
77523;SHT31;66637;-29.628;-49.938;2023-07-30T14:29:54;20.14;62.78
77523;SHT31;66637;-29.628;-49.938;2023-07-30T14:32:26;20.15;62.37
77523;SHT31;66637;-29.628;-49.938;2023-07-30T14:34:57;20.10;62.95
77523;SHT31;66637;-29.628;-49.938;2023-07-30T14:37:28;20.20;62.79
77523;SHT31;66637;-29.628;-49.938;2023-07-30T14:39:58;20.08;63.25
77523;SHT31;66637;-29.628;-49.938;2023-07-30T14:42:29;20.14;61.58
77523;SHT31;66637;-29.628;-49.938;2023-07-30T14:44:59;20.26;61.92
77523;SHT31;66637;-29.628;-49.938;2023-07-30T14:47:30;20.26;63.50
77523;SHT31;66637;-29.628;-49.938;2023-07-30T14:50:00;20.26;62.90
77523;SHT31;66637;-29.628;-49.938;2023-07-30T14:52:32;20.25;63.81
77523;SHT31;66637;-29.628;-49.938;2023-07-30T14:55:02;20.42;63.52
77523;SHT31;66637;-29.628;-49.938;2023-07-30T14:57:33;20.46;60.98
77523;SHT31;66637;-29.628;-49.938;2023-07-30T15:00:04;20.38;62.54
77523;SHT31;66637;-29.628;-49.938;2023-07-30T15:02:36;20.36;61.81
77523;SHT31;66637;-29.628;-49.938;2023-07-30T15:05:09;20.38;61.87
77523;SHT31;66637;-29.628;-49.938;2023-07-30T15:07:41;20.44;62.18
77523;SHT31;66637;-29.628;-49.938;2023-07-30T15:10:11;20.55;61.97
77523;SHT31;66637;-29.628;-49.938;2023-07-30T15:12:43;20.64;62.63
77523;SHT31;66637;-29.628;-49.938;2023-07-30T15:15:13;20.59;63.54
77523;SHT31;66637;-29.628;-49.938;2023-07-30T15:17:43;20.51;62.01
77523;SHT31;66637;-29.628;-49.938;2023-07-30T15:20:15;20.52;62.28
77523;SHT31;66637;-29.628;-49.938;2023-07-30T15:22:45;20.59;61.56
77523;SHT31;66637;-29.628;-49.938;2023-07-30T15:25:16;20.56;60.46
77523;SHT31;66637;-29.628;-49.938;2023-07-30T15:27:48;20.61;61.80
77523;SHT31;66637;-29.628;-49.938;2023-07-30T15:30:23;20.71;61.78
77523;SHT31;66637;-29.628;-49.938;2023-07-30T15:32:58;20.65;61.77
77523;SHT31;66637;-29.628;-49.938;2023-07-30T15:35:31;20.65;62.68
77523;SHT31;66637;-29.628;-49.938;2023-07-30T15:38:06;20.55;63.25
77523;SHT31;66637;-29.628;-49.938;2023-07-30T15:40:38;20.65;63.54
77523;SHT31;66637;-29.628;-49.938;2023-07-30T15:43:08;20.61;62.93
77523;SHT31;66637;-29.628;-49.938;2023-07-30T15:45:39;20.68;62.88
77523;SHT31;66637;-29.628;-49.938;2023-07-30T15:48:16;20.77;64.33
77523;SHT31;66637;-29.628;-49.938;2023-07-30T15:50:50;20.87;63.81
77523;SHT31;66637;-29.628;-49.938;2023-07-30T15:53:21;20.89;63.21
77523;SHT31;66637;-29.628;-49.938;2023-07-30T15:55:52;20.86;63.14
77523;SHT31;66637;-29.628;-49.938;2023-07-30T15:58:23;20.93;62.19
77523;SHT31;66637;-29.628;-49.938;2023-07-30T16:00:54;20.90;62.88
77523;SHT31;66637;-29.628;-49.938;2023-07-30T16:03:25;20.83;61.97
77523;SHT31;66637;-29.628;-49.938;2023-07-30T16:05:57;20.87;63.04
77523;SHT31;66637;-29.628;-49.938;2023-07-30T16:08:27;20.83;62.70
77523;SHT31;66637;-29.628;-49.938;2023-07-30T16:11:05;20.80;62.69
77523;SHT31;66637;-29.628;-49.938;2023-07-30T16:13:36;20.89;63.15
77523;SHT31;66637;-29.628;-49.938;2023-07-30T16:16:12;21.00;63.09
77523;SHT31;66637;-29.628;-49.938;2023-07-30T16:18:45;20.96;62.94
77523;SHT31;66637;-29.628;-49.938;2023-07-30T16:21:16;21.02;62.60
77523;SHT31;66637;-29.628;-49.938;2023-07-30T16:23:46;21.03;64.20
77523;SHT31;66637;-29.628;-49.938;2023-07-30T16:26:17;21.02;62.82
77523;SHT31;66637;-29.628;-49.938;2023-07-30T16:28:47;21.09;63.28
77523;SHT31;66637;-29.628;-49.938;2023-07-30T16:31:19;21.11;63.06
77523;SHT31;66637;-29.628;-49.938;2023-07-30T16:33:50;20.99;61.99
77523;SHT31;66637;-29.628;-49.938;2023-07-30T16:36:20;21.00;62.80
77523;SHT31;66637;-29.628;-49.938;2023-07-30T16:38:51;20.92;62.41
77523;SHT31;66637;-29.628;-49.938;2023-07-30T16:41:21;20.90;62.95
77523;SHT31;66637;-29.628;-49.938;2023-07-30T16:43:54;20.85;63.40
77523;SHT31;66637;-29.628;-49.938;2023-07-30T16:46:24;20.77;63.89
77523;SHT31;66637;-29.628;-49.938;2023-07-30T16:49:04;20.80;63.78
77523;SHT31;66637;-29.628;-49.938;2023-07-30T16:51:34;20.69;63.87
77523;SHT31;66637;-29.628;-49.938;2023-07-30T16:54:05;20.73;63.79
77523;SHT31;66637;-29.628;-49.938;2023-07-30T16:56:36;20.76;62.72
77523;SHT31;66637;-29.628;-49.938;2023-07-30T16:59:07;20.80;62.74
77523;SHT31;66637;-29.628;-49.938;2023-07-30T17:01:37;20.71;64.69
77523;SHT31;66637;-29.628;-49.938;2023-07-30T17:04:07;20.44;64.34
77523;SHT31;66637;-29.628;-49.938;2023-07-30T17:06:38;20.51;65.01
77523;SHT31;66637;-29.628;-49.938;2023-07-30T17:09:08;20.71;64.20
77523;SHT31;66637;-29.628;-49.938;2023-07-30T17:11:38;20.59;62.18
77523;SHT31;66637;-29.628;-49.938;2023-07-30T17:14:12;20.68;63.52
77523;SHT31;66637;-29.628;-49.938;2023-07-30T17:16:44;20.52;63.81
77523;SHT31;66637;-29.628;-49.938;2023-07-30T17:19:15;20.76;63.63
77523;SHT31;66637;-29.628;-49.938;2023-07-30T17:21:45;20.58;63.62
77523;SHT31;66637;-29.628;-49.938;2023-07-30T17:24:16;20.69;62.85
77523;SHT31;66637;-29.628;-49.938;2023-07-30T17:26:58;20.69;61.73
77523;SHT31;66637;-29.628;-49.938;2023-07-30T17:29:29;20.80;62.34
77523;SHT31;66637;-29.628;-49.938;2023-07-30T17:31:59;20.71;62.36
77523;SHT31;66637;-29.628;-49.938;2023-07-30T17:34:30;20.83;63.01
77523;SHT31;66637;-29.628;-49.938;2023-07-30T17:37:00;20.76;62.44
77523;SHT31;66637;-29.628;-49.938;2023-07-30T17:39:36;20.83;62.49
77523;SHT31;66637;-29.628;-49.938;2023-07-30T17:42:07;20.62;61.90
77523;SHT31;66637;-29.628;-49.938;2023-07-30T17:44:38;20.68;62.51
77523;SHT31;66637;-29.628;-49.938;2023-07-30T17:47:10;20.71;62.65
77523;SHT31;66637;-29.628;-49.938;2023-07-30T17:49:41;20.68;63.11
77523;SHT31;66637;-29.628;-49.938;2023-07-30T17:52:12;20.72;63.91
77523;SHT31;66637;-29.628;-49.938;2023-07-30T17:54:48;20.83;64.19
77523;SHT31;66637;-29.628;-49.938;2023-07-30T17:57:20;20.68;63.67
77523;SHT31;66637;-29.628;-49.938;2023-07-30T17:59:50;20.58;64.60
77523;SHT31;66637;-29.628;-49.938;2023-07-30T18:02:21;20.62;64.90
77523;SHT31;66637;-29.628;-49.938;2023-07-30T18:04:53;20.68;64.52
77523;SHT31;66637;-29.628;-49.938;2023-07-30T18:07:24;20.55;64.72
77523;SHT31;66637;-29.628;-49.938;2023-07-30T18:09:56;20.58;65.04
77523;SHT31;66637;-29.628;-49.938;2023-07-30T18:12:28;20.64;65.29
77523;SHT31;66637;-29.628;-49.938;2023-07-30T18:14:59;20.61;65.93
77523;SHT31;66637;-29.628;-49.938;2023-07-30T18:17:29;20.48;65.24
77523;SHT31;66637;-29.628;-49.938;2023-07-30T18:20:01;20.49;64.90
77523;SHT31;66637;-29.628;-49.938;2023-07-30T18:22:31;20.52;66.21
77523;SHT31;66637;-29.628;-49.938;2023-07-30T18:25:04;20.56;65.65
77523;SHT31;66637;-29.628;-49.938;2023-07-30T18:27:35;20.56;65.44
77523;SHT31;66637;-29.628;-49.938;2023-07-30T18:30:05;20.48;64.66
77523;SHT31;66637;-29.628;-49.938;2023-07-30T18:32:36;20.53;65.04
77523;SHT31;66637;-29.628;-49.938;2023-07-30T18:35:09;20.52;65.82
77523;SHT31;66637;-29.628;-49.938;2023-07-30T18:37:40;20.39;64.44
77523;SHT31;66637;-29.628;-49.938;2023-07-30T18:40:10;20.34;65.17
77523;SHT31;66637;-29.628;-49.938;2023-07-30T18:42:42;20.31;64.40
77523;SHT31;66637;-29.628;-49.938;2023-07-30T18:45:13;20.35;65.79
77523;SHT31;66637;-29.628;-49.938;2023-07-30T18:47:44;20.24;65.08
77523;SHT31;66637;-29.628;-49.938;2023-07-30T18:50:15;20.13;65.24
77523;SHT31;66637;-29.628;-49.938;2023-07-30T18:52:45;20.01;66.49
77523;SHT31;66637;-29.628;-49.938;2023-07-30T18:55:15;20.10;66.56
77523;SHT31;66637;-29.628;-49.938;2023-07-30T18:57:49;20.11;66.63
77523;SHT31;66637;-29.628;-49.938;2023-07-30T19:00:19;20.10;66.94
77523;SHT31;66637;-29.628;-49.938;2023-07-30T19:02:50;20.03;66.90
77523;SHT31;66637;-29.628;-49.938;2023-07-30T19:05:21;19.98;67.21
77523;SHT31;66637;-29.628;-49.938;2023-07-30T19:07:51;19.84;67.47
77523;SHT31;66637;-29.628;-49.938;2023-07-30T19:10:22;19.80;68.10
77523;SHT31;66637;-29.628;-49.938;2023-07-30T19:12:52;19.80;68.37
77523;SHT31;66637;-29.628;-49.938;2023-07-30T19:15:25;19.71;68.40
77523;SHT31;66637;-29.628;-49.938;2023-07-30T19:17:57;19.73;69.04
77523;SHT31;66637;-29.628;-49.938;2023-07-30T19:20:27;19.60;69.45
77523;SHT31;66637;-29.628;-49.938;2023-07-30T19:23:01;19.53;68.85
77523;SHT31;66637;-29.628;-49.938;2023-07-30T19:25:32;19.30;68.85
77523;SHT31;66637;-29.628;-49.938;2023-07-30T19:28:02;19.22;69.54
77523;SHT31;66637;-29.628;-49.938;2023-07-30T19:30:38;19.24;69.65
77523;SHT31;66637;-29.628;-49.938;2023-07-30T19:33:08;19.10;69.92
77523;SHT31;66637;-29.628;-49.938;2023-07-30T19:35:39;19.19;69.80
77523;SHT31;66637;-29.628;-49.938;2023-07-30T19:38:19;19.33;69.28
77523;SHT31;66637;-29.628;-49.938;2023-07-30T19:40:53;19.24;69.50
77523;SHT31;66637;-29.628;-49.938;2023-07-30T19:43:24;19.06;69.88
77523;SHT31;66637;-29.628;-49.938;2023-07-30T19:45:54;18.84;69.78
77523;SHT31;66637;-29.628;-49.938;2023-07-30T19:48:25;18.73;70.05
77523;SHT31;66637;-29.628;-49.938;2023-07-30T19:50:56;18.73;70.59
77523;SHT31;66637;-29.628;-49.938;2023-07-30T19:53:27;18.59;70.77
77523;SHT31;66637;-29.628;-49.938;2023-07-30T19:55:59;18.55;70.70
77523;SHT31;66637;-29.628;-49.938;2023-07-30T19:58:31;18.51;71.00
77523;SHT31;66637;-29.628;-49.938;2023-07-30T20:01:02;18.43;71.35
77523;SHT31;66637;-29.628;-49.938;2023-07-30T20:03:32;18.34;71.34
77523;SHT31;66637;-29.628;-49.938;2023-07-30T20:06:36;18.26;71.54
77523;SHT31;66637;-29.628;-49.938;2023-07-30T20:09:33;18.11;71.87
77523;SHT31;66637;-29.628;-49.938;2023-07-30T20:12:10;18.11;72.17
77523;SHT31;66637;-29.628;-49.938;2023-07-30T20:14:44;18.20;72.02
77523;SHT31;66637;-29.628;-49.938;2023-07-30T20:17:16;18.08;72.04
77523;SHT31;66637;-29.628;-49.938;2023-07-30T20:19:48;18.04;72.47
77523;SHT31;66637;-29.628;-49.938;2023-07-30T20:22:20;18.00;72.51
77523;SHT31;66637;-29.628;-49.938;2023-07-30T20:24:55;17.97;72.15
77523;SHT31;66637;-29.628;-49.938;2023-07-30T20:27:30;17.87;72.67
77523;SHT31;66637;-29.628;-49.938;2023-07-30T20:30:06;17.85;72.92
77523;SHT31;66637;-29.628;-49.938;2023-07-30T20:32:38;17.75;73.44
77523;SHT31;66637;-29.628;-49.938;2023-07-30T20:35:09;17.66;73.72
77523;SHT31;66637;-29.628;-49.938;2023-07-30T20:37:40;17.61;73.81
77523;SHT31;66637;-29.628;-49.938;2023-07-30T20:40:11;17.56;73.59
77523;SHT31;66637;-29.628;-49.938;2023-07-30T20:42:43;17.55;73.92
77523;SHT31;66637;-29.628;-49.938;2023-07-30T20:45:14;17.52;73.99
77523;SHT31;66637;-29.628;-49.938;2023-07-30T20:47:51;17.49;74.34
77523;SHT31;66637;-29.628;-49.938;2023-07-30T20:50:23;17.40;74.38
77523;SHT31;66637;-29.628;-49.938;2023-07-30T20:52:57;17.36;74.26
77523;SHT31;66637;-29.628;-49.938;2023-07-30T20:58:41;17.33;74.96
77523;SHT31;66637;-29.628;-49.938;2023-07-30T21:01:38;17.25;75.23
77523;SHT31;66637;-29.628;-49.938;2023-07-30T21:05:01;17.18;75.56
77523;SHT31;66637;-29.628;-49.938;2023-07-30T21:07:37;17.18;75.49
77523;SHT31;66637;-29.628;-49.938;2023-07-30T21:10:13;17.18;75.39
77523;SHT31;66637;-29.628;-49.938;2023-07-30T21:13:12;17.14;75.40
77523;SHT31;66637;-29.628;-49.938;2023-07-30T21:15:46;17.07;75.64
77523;SHT31;66637;-29.628;-49.938;2023-07-30T21:18:23;17.05;75.95
77523;SHT31;66637;-29.628;-49.938;2023-07-30T21:20:55;17.00;75.92
77523;SHT31;66637;-29.628;-49.938;2023-07-30T21:23:25;17.00;75.87
77523;SHT31;66637;-29.628;-49.938;2023-07-30T21:25:56;16.94;75.78
77523;SHT31;66637;-29.628;-49.938;2023-07-30T21:28:30;16.85;75.73
77523;SHT31;66637;-29.628;-49.938;2023-07-30T21:31:02;16.77;75.75
77523;SHT31;66637;-29.628;-49.938;2023-07-30T21:33:35;16.67;75.78
77523;SHT31;66637;-29.628;-49.938;2023-07-30T21:36:07;16.61;76.05
77523;SHT31;66637;-29.628;-49.938;2023-07-30T21:38:37;16.64;76.02
77523;SHT31;66637;-29.628;-49.938;2023-07-30T21:41:09;16.60;76.10
77523;SHT31;66637;-29.628;-49.938;2023-07-30T21:43:39;16.57;76.21
77523;SHT31;66637;-29.628;-49.938;2023-07-30T21:46:09;16.49;76.30
77523;SHT31;66637;-29.628;-49.938;2023-07-30T21:48:39;16.41;76.36
77523;SHT31;66637;-29.628;-49.938;2023-07-30T21:51:11;16.33;76.61
77523;SHT31;66637;-29.628;-49.938;2023-07-30T21:53:42;16.19;76.83
77523;SHT31;66637;-29.628;-49.938;2023-07-30T21:56:13;16.08;76.89
77523;SHT31;66637;-29.628;-49.938;2023-07-30T21:58:43;16.02;77.02
77523;SHT31;66637;-29.628;-49.938;2023-07-30T22:01:15;15.98;76.97
77523;SHT31;66637;-29.628;-49.938;2023-07-30T22:03:45;15.93;77.36
77523;SHT31;66637;-29.628;-49.938;2023-07-30T22:06:16;15.88;77.42
77523;SHT31;66637;-29.628;-49.938;2023-07-30T22:08:48;15.78;77.36
77523;SHT31;66637;-29.628;-49.938;2023-07-30T22:11:19;15.78;77.45
77523;SHT31;66637;-29.628;-49.938;2023-07-30T22:13:54;15.85;77.47
77523;SHT31;66637;-29.628;-49.938;2023-07-30T22:16:24;15.76;77.59
77523;SHT31;66637;-29.628;-49.938;2023-07-30T22:18:55;15.65;77.53
77523;SHT31;66637;-29.628;-49.938;2023-07-30T22:21:26;15.65;77.92
77523;SHT31;66637;-29.628;-49.938;2023-07-30T22:23:58;15.55;77.90
77523;SHT31;66637;-29.628;-49.938;2023-07-30T22:26:29;15.49;77.75
77523;SHT31;66637;-29.628;-49.938;2023-07-30T22:29:00;15.55;78.13
77523;SHT31;66637;-29.628;-49.938;2023-07-30T22:31:32;15.56;77.95
77523;SHT31;66637;-29.628;-49.938;2023-07-30T22:34:03;15.48;77.92
77523;SHT31;66637;-29.628;-49.938;2023-07-30T22:36:34;15.45;78.11
77523;SHT31;66637;-29.628;-49.938;2023-07-30T22:39:06;15.47;77.87
77523;SHT31;66637;-29.628;-49.938;2023-07-30T22:41:37;15.39;77.98
77523;SHT31;66637;-29.628;-49.938;2023-07-30T22:44:07;15.38;78.11
77523;SHT31;66637;-29.628;-49.938;2023-07-30T22:46:39;15.28;78.00
77523;SHT31;66637;-29.628;-49.938;2023-07-30T22:49:11;15.30;77.96
77523;SHT31;66637;-29.628;-49.938;2023-07-30T22:51:42;15.21;78.03
77523;SHT31;66637;-29.628;-49.938;2023-07-30T22:54:13;15.18;78.41
77523;SHT31;66637;-29.628;-49.938;2023-07-30T22:56:44;15.17;78.21
77523;SHT31;66637;-29.628;-49.938;2023-07-30T22:59:14;15.18;78.43
77523;SHT31;66637;-29.628;-49.938;2023-07-30T23:01:45;15.10;77.78
77523;SHT31;66637;-29.628;-49.938;2023-07-30T23:04:16;15.08;77.86
77523;SHT31;66637;-29.628;-49.938;2023-07-30T23:06:46;15.05;78.81
77523;SHT31;66637;-29.628;-49.938;2023-07-30T23:09:20;15.00;79.03
77523;SHT31;66637;-29.628;-49.938;2023-07-30T23:11:51;14.94;78.79
77523;SHT31;66637;-29.628;-49.938;2023-07-30T23:14:24;14.87;78.77
77523;SHT31;66637;-29.628;-49.938;2023-07-30T23:16:55;14.88;78.69
77523;SHT31;66637;-29.628;-49.938;2023-07-30T23:19:26;14.83;78.97
77523;SHT31;66637;-29.628;-49.938;2023-07-30T23:21:58;14.76;79.26